Time;durP1;ratioP1;P1;durP2;ratioP2;P2;SDS_P1;SDS_P2;PMS_P1;PMS_P2;Temp;Humidity;BMP_temperature;BMP_pressure;BME280_temperature;BME280_humidity;BME280_pressure;Samples;Min_cycle;Max_cycle;Signal;HPM_P1;HPM_P2
2021/01/21 00:00:00;;;;;;;37.83;20.62;;;;;;;-5.65;74.80;101013.18;1828299;77;21374;-69
2021/01/21 00:02:30;;;;;;;46.02;21.02;;;;;;;-5.64;74.80;101010.91;1829693;77;21790;-70
2021/01/21 00:04:58;;;;;;;46.40;22.70;;;;;;;-5.64;74.77;101008.31;1824020;77;21203;-69
2021/01/21 00:07:28;;;;;;;46.85;23.85;;;;;;;-5.64;74.73;101009.61;1827747;77;21535;-70
2021/01/21 00:09:55;;;;;;;44.70;22.62;;;;;;;-5.63;74.74;101007.82;1826127;77;21675;-68
2021/01/21 00:12:23;;;;;;;41.02;21.95;;;;;;;-5.62;74.70;101006.88;1826325;77;22678;-69
2021/01/21 00:14:51;;;;;;;41.42;20.97;;;;;;;-5.58;74.71;100999.94;1826401;77;21536;-69
2021/01/21 00:17:19;;;;;;;41.77;20.12;;;;;;;-5.55;74.67;100990.55;1831342;77;21107;-69
2021/01/21 00:19:48;;;;;;;41.55;20.95;;;;;;;-5.55;74.63;100974.94;1825351;77;21174;-71
2021/01/21 00:22:17;;;;;;;46.92;26.20;;;;;;;-5.54;74.54;100981.77;1823234;77;21191;-70
2021/01/21 00:24:44;;;;;;;51.85;26.50;;;;;;;-5.56;74.56;100986.32;1827943;77;22275;-69
2021/01/21 00:27:12;;;;;;;52.08;26.07;;;;;;;-5.54;74.54;100980.95;1844106;77;21167;-70
2021/01/21 00:29:39;;;;;;;44.58;23.52;;;;;;;-5.56;74.55;100985.02;1826076;77;21167;-69
2021/01/21 00:32:08;;;;;;;45.63;22.85;;;;;;;-5.55;74.47;100984.53;1821373;77;21179;-69
2021/01/21 00:34:37;;;;;;;41.33;20.40;;;;;;;-5.57;74.51;100983.36;1798285;77;21234;-69
2021/01/21 00:37:05;;;;;;;41.65;20.82;;;;;;;-5.60;74.51;100987.54;1843046;77;21344;-70
2021/01/21 00:39:32;;;;;;;42.43;21.20;;;;;;;-5.57;74.57;100981.23;1833155;77;21198;-69
2021/01/21 00:42:00;;;;;;;38.02;21.33;;;;;;;-5.52;74.58;100981.65;1833148;77;21093;-69
2021/01/21 00:44:28;;;;;;;39.70;21.00;;;;;;;-5.46;74.52;100984.98;1836932;77;21173;-69
2021/01/21 00:46:55;;;;;;;44.50;23.05;;;;;;;-5.41;74.48;100984.06;1834159;77;21083;-70
2021/01/21 00:49:23;;;;;;;39.03;20.95;;;;;;;-5.39;74.42;100978.25;1823036;77;21801;-69
2021/01/21 00:51:50;;;;;;;40.52;20.32;;;;;;;-5.39;74.39;100983.45;1800800;77;21254;-70
2021/01/21 00:54:18;;;;;;;39.92;20.60;;;;;;;-5.35;74.34;100972.27;1847204;77;21151;-70
2021/01/21 00:56:47;;;;;;;38.08;20.35;;;;;;;-5.33;74.19;100978.14;1834002;77;21511;-70
2021/01/21 00:59:14;;;;;;;38.00;19.70;;;;;;;-5.33;74.13;100962.52;1833554;77;21151;-71
2021/01/21 01:01:45;;;;;;;35.60;19.75;;;;;;;-5.37;74.07;100961.98;1842734;77;21166;-70
2021/01/21 01:04:13;;;;;;;37.40;19.70;;;;;;;-5.36;74.09;100956.30;1844653;77;21167;-70
2021/01/21 01:06:44;;;;;;;37.95;19.75;;;;;;;-5.34;74.03;100960.88;1852980;77;21128;-69
2021/01/21 01:09:14;;;;;;;34.08;18.52;;;;;;;-5.31;74.00;100963.20;1832271;77;21159;-70
2021/01/21 01:11:42;;;;;;;38.55;19.57;;;;;;;-5.31;73.93;100960.60;1829642;77;21586;-71
2021/01/21 01:14:11;;;;;;;34.23;19.45;;;;;;;-5.30;73.93;100953.94;1828448;77;21201;-73
2021/01/21 01:16:39;;;;;;;35.75;18.95;;;;;;;-5.26;73.87;100961.82;1828695;77;21474;-71
2021/01/21 01:19:10;;;;;;;38.00;19.15;;;;;;;-5.23;73.84;100962.84;1821051;77;21190;-70
2021/01/21 01:21:38;;;;;;;33.98;18.82;;;;;;;-5.22;73.79;100958.44;1820548;77;21214;-71
2021/01/21 01:24:06;;;;;;;37.35;20.43;;;;;;;-5.20;73.79;100959.95;1835572;77;21650;-71
2021/01/21 01:26:36;;;;;;;37.67;19.92;;;;;;;-5.17;73.78;100958.81;1826856;77;21845;-69
2021/01/21 01:29:09;;;;;;;33.70;18.87;;;;;;;-5.13;73.74;100945.86;1832105;77;21166;-71
2021/01/21 01:31:38;;;;;;;37.00;18.23;;;;;;;-5.12;73.66;100951.40;1819252;78;21198;-70
2021/01/21 01:34:06;;;;;;;35.70;19.30;;;;;;;-5.10;73.67;100953.39;1819338;78;21630;-71
2021/01/21 01:36:36;;;;;;;32.35;18.37;;;;;;;-5.07;73.62;100948.34;1829534;77;21202;-70
2021/01/21 01:39:04;;;;;;;36.65;19.73;;;;;;;-5.08;73.59;100950.14;1833174;77;22270;-71
2021/01/21 01:41:49;;;;;;;33.80;18.67;;;;;;;-5.02;73.56;100946.95;1816810;77;22707;-71
2021/01/21 01:44:17;;;;;;;34.08;18.70;;;;;;;-5.06;73.57;100952.13;1781819;79;21175;-71
2021/01/21 01:46:45;;;;;;;33.83;18.48;;;;;;;-5.04;73.56;100940.24;1791254;79;22391;-69
2021/01/21 01:49:17;;;;;;;31.10;17.52;;;;;;;-5.00;73.59;100933.77;1795063;79;21119;-70
2021/01/21 01:51:46;;;;;;;33.05;18.00;;;;;;;-4.99;73.55;100932.34;1783417;79;21150;-70
2021/01/21 01:54:18;;;;;;;33.18;18.67;;;;;;;-4.98;73.56;100925.34;1808189;79;21167;-69
2021/01/21 01:56:47;;;;;;;31.33;16.82;;;;;;;-4.97;73.54;100930.42;1755719;79;21195;-70
2021/01/21 01:59:17;;;;;;;33.73;19.77;;;;;;;-4.92;73.56;100930.45;1800076;79;22315;-71
2021/01/21 02:01:49;;;;;;;32.73;18.10;;;;;;;-4.94;73.55;100926.67;1799830;79;21295;-67
2021/01/21 02:04:20;;;;;;;33.98;18.82;;;;;;;-4.90;73.59;100931.11;1803341;79;21658;-69
2021/01/21 02:07:10;;;;;;;33.75;18.40;;;;;;;-4.88;73.62;100927.39;1783337;79;21221;-69
2021/01/21 02:09:55;;;;;;;33.90;17.83;;;;;;;-4.79;73.61;100917.39;1885491;74;23365;-71
2021/01/21 02:13:12;;;;;;;33.48;17.75;;;;;;;-4.80;73.61;100915.77;1725620;77;10000454;-69
2021/01/21 02:16:36;;;;;;;31.62;17.40;;;;;;;-4.79;73.60;100910.88;1830941;77;21196;-70
2021/01/21 02:19:26;;;;;;;34.65;18.02;;;;;;;-4.74;73.61;100905.21;1834171;77;21585;-70
2021/01/21 02:22:37;;;;;;;34.40;18.02;;;;;;;-4.71;73.58;100903.62;1830361;77;21140;-71
2021/01/21 02:25:23;;;;;;;32.65;18.80;;;;;;;-4.71;73.58;100912.25;1824546;77;22176;-70
2021/01/21 02:28:15;;;;;;;34.60;18.92;;;;;;;-4.73;73.61;100902.97;1823099;78;22520;-70
2021/01/21 02:31:01;;;;;;;31.83;17.63;;;;;;;-4.74;73.65;100900.84;1692335;77;10000440;-71
2021/01/21 02:33:57;;;;;;;34.00;17.90;;;;;;;-4.74;73.70;100906.52;1814808;78;21104;-71
2021/01/21 02:36:40;;;;;;;34.00;18.17;;;;;;;-4.74;73.75;100899.55;1811862;78;21659;-71
2021/01/21 02:39:20;;;;;;;33.40;19.13;;;;;;;-4.68;73.80;100898.11;1768068;78;23255;-69
2021/01/21 02:41:48;;;;;;;33.65;18.62;;;;;;;-4.73;73.87;100897.75;1738749;82;21169;-70
2021/01/21 02:44:16;;;;;;;32.00;17.95;;;;;;;-4.72;73.91;100897.59;1747341;80;21818;-70
2021/01/21 02:46:45;;;;;;;36.42;19.30;;;;;;;-4.74;73.90;100900.00;1754918;81;21191;-70
2021/01/21 02:49:13;;;;;;;34.30;18.12;;;;;;;-4.72;73.95;100899.38;1747293;81;21219;-70
2021/01/21 02:52:03;;;;;;;32.63;17.75;;;;;;;-4.70;73.99;100897.45;1754555;81;21191;-70
2021/01/21 02:54:49;;;;;;;32.05;18.20;;;;;;;-4.70;74.02;100898.77;1736354;81;21218;-69
2021/01/21 02:57:36;;;;;;;33.80;17.85;;;;;;;-4.70;74.06;100896.16;1762652;81;21360;-69
2021/01/21 03:00:07;;;;;;;34.13;17.90;;;;;;;-4.71;74.08;100890.59;1758395;81;21222;-69
2021/01/21 03:02:38;;;;;;;31.90;17.50;;;;;;;-4.71;74.14;100886.67;1751351;81;21642;-69
2021/01/21 03:05:08;;;;;;;32.55;18.20;;;;;;;-4.71;74.21;100884.89;1738474;79;21179;-68
2021/01/21 03:07:36;;;;;;;30.10;17.32;;;;;;;-4.71;74.26;100878.38;1726215;82;21187;-69
2021/01/21 03:10:06;;;;;;;34.83;18.48;;;;;;;-4.72;74.28;100880.65;1694372;81;21453;-68
2021/01/21 03:12:36;;;;;;;32.75;17.32;;;;;;;-4.72;74.32;100882.44;1703323;82;21202;-70
2021/01/21 03:15:07;;;;;;;29.82;16.02;;;;;;;-4.70;74.38;100888.34;1723842;82;21196;-69
2021/01/21 03:17:36;;;;;;;35.33;18.45;;;;;;;-4.69;74.47;100887.36;1714321;81;21163;-69
2021/01/21 03:20:09;;;;;;;34.38;18.82;;;;;;;-4.64;74.53;100883.83;1733655;82;21203;-70
2021/01/21 03:22:38;;;;;;;35.55;18.42;;;;;;;-4.61;74.54;100886.59;1735529;82;21337;-69
2021/01/21 03:25:10;;;;;;;32.60;17.98;;;;;;;-4.61;74.58;100874.38;1739296;81;21198;-70
2021/01/21 03:27:39;;;;;;;28.85;16.20;;;;;;;-4.59;74.62;100884.19;1736567;82;21119;-70
2021/01/21 03:30:10;;;;;;;32.60;18.60;;;;;;;-4.60;74.66;100870.83;1735212;81;21208;-70
2021/01/21 03:32:37;;;;;;;34.40;18.25;;;;;;;-4.58;74.69;100867.56;1731873;81;21199;-70
2021/01/21 03:35:09;;;;;;;31.17;17.02;;;;;;;-4.58;74.72;100870.17;1738832;81;21335;-69
2021/01/21 03:37:39;;;;;;;35.43;18.87;;;;;;;-4.58;74.81;100875.39;1738169;81;21199;-69
2021/01/21 03:40:09;;;;;;;33.67;17.92;;;;;;;-4.56;74.84;100883.89;1738377;81;21191;-69
2021/01/21 03:42:51;;;;;;;31.73;17.70;;;;;;;-4.48;74.87;100888.34;1829520;77;23063;-69
2021/01/21 03:45:35;;;;;;;32.57;17.80;;;;;;;-4.50;74.92;100884.59;1801564;77;22732;-69
2021/01/21 03:48:06;;;;;;;33.63;18.00;;;;;;;-4.55;74.93;100881.61;1776031;79;21196;-70
2021/01/21 03:50:36;;;;;;;37.03;20.12;;;;;;;-4.53;74.98;100885.38;1770982;79;21199;-70
2021/01/21 03:53:04;;;;;;;34.10;18.73;;;;;;;-4.52;75.02;100889.62;1735083;81;21201;-70
2021/01/21 03:55:34;;;;;;;36.25;18.77;;;;;;;-4.52;75.02;100896.95;1702891;81;21213;-69
2021/01/21 03:58:04;;;;;;;37.88;18.27;;;;;;;-4.49;75.08;100886.71;1714949;82;21174;-70
2021/01/21 04:00:44;;;;;;;35.80;18.77;;;;;;;-4.40;75.13;100885.00;1823177;76;22792;-69
2021/01/21 04:03:13;;;;;;;34.15;18.35;;;;;;;-4.42;75.16;100881.22;1807900;77;21130;-70
2021/01/21 04:05:49;;;;;;;32.73;18.50;;;;;;;-4.35;75.14;100877.03;1839347;75;21780;-70
2021/01/21 04:08:20;;;;;;;34.38;18.30;;;;;;;-4.30;75.10;100876.59;1795007;78;21813;-69
2021/01/21 04:10:49;;;;;;;33.28;17.80;;;;;;;-4.31;75.07;100880.16;1812623;77;21538;-70
2021/01/21 04:13:38;;;;;;;34.47;17.20;;;;;;;-4.28;75.09;100878.55;1840822;77;22880;-70
2021/01/21 04:16:08;;;;;;;34.98;18.73;;;;;;;-4.35;75.14;100870.52;1816459;77;21193;-69
2021/01/21 04:18:35;;;;;;;33.65;17.62;;;;;;;-4.37;75.20;100871.17;1846818;77;21372;-69
2021/01/21 04:21:05;;;;;;;37.60;21.27;;;;;;;-4.40;75.26;100864.95;1847998;77;21131;-69
2021/01/21 04:23:35;;;;;;;37.10;23.10;;;;;;;-4.40;75.35;100870.66;1803114;79;21104;-69
2021/01/21 04:26:05;;;;;;;35.30;19.73;;;;;;;-4.40;75.43;100870.66;1817328;78;21168;-70
2021/01/21 04:28:37;;;;;;;36.65;20.12;;;;;;;-4.39;75.50;100869.68;1823377;78;21188;-69
2021/01/21 04:31:05;;;;;;;34.25;18.05;;;;;;;-4.38;75.56;100876.52;1810161;79;21240;-69
2021/01/21 04:33:35;;;;;;;32.03;17.30;;;;;;;-4.35;75.59;100880.13;1812136;78;21160;-69
2021/01/21 04:36:03;;;;;;;34.20;18.77;;;;;;;-4.32;75.61;100888.95;1791661;78;21575;-69
2021/01/21 04:38:33;;;;;;;34.38;18.92;;;;;;;-4.30;75.62;100883.12;1808469;78;21606;-69
2021/01/21 04:41:05;;;;;;;36.35;19.62;;;;;;;-4.29;75.67;100879.53;1823162;78;21112;-69
2021/01/21 04:43:49;;;;;;;37.33;19.25;;;;;;;-4.28;75.69;100866.81;1800981;78;22247;-69
2021/01/21 04:46:37;;;;;;;36.17;19.73;;;;;;;-4.20;75.73;100865.58;1758177;79;22739;-70
2021/01/21 04:49:05;;;;;;;31.55;17.52;;;;;;;-4.25;75.76;100875.64;1725023;82;21121;-70
2021/01/21 04:51:33;;;;;;;35.88;20.48;;;;;;;-4.23;75.78;100872.41;1750018;82;21174;-70
2021/01/21 04:54:04;;;;;;;27.87;15.55;;;;;;;-4.26;75.79;100871.41;1759458;80;21185;-70
2021/01/21 04:57:03;;;;;;;33.13;18.63;;;;;;;-4.17;75.86;100869.19;1847898;77;23268;-70
2021/01/21 04:59:38;;;;;;;34.03;18.50;;;;;;;-4.22;75.86;100860.99;1817025;77;21118;-69
2021/01/21 05:02:08;;;;;;;33.33;17.67;;;;;;;-4.22;75.88;100858.38;1776774;78;22186;-69
2021/01/21 05:04:36;;;;;;;32.90;19.15;;;;;;;-4.22;75.90;100862.30;1775807;78;21188;-69
2021/01/21 05:07:29;;;;;;;33.87;18.17;;;;;;;-4.17;75.94;100863.97;1817865;77;22880;-69
2021/01/21 05:09:57;;;;;;;35.10;19.10;;;;;;;-4.22;75.94;100853.16;1819902;78;21402;-69
2021/01/21 05:12:25;;;;;;;33.15;18.10;;;;;;;-4.19;76.01;100856.77;1817350;78;21344;-69
2021/01/21 05:15:12;;;;;;;33.92;21.05;;;;;;;-4.12;76.02;100862.20;1847858;74;27862;-71
2021/01/21 05:17:44;;;;;;;36.75;20.60;;;;;;;-4.10;76.01;100864.17;1789270;77;21152;-70
2021/01/21 05:20:34;;;;;;;33.67;19.02;;;;;;;-4.04;75.97;100872.20;1843135;76;21310;-70
2021/01/21 05:23:24;;;;;;;34.38;19.32;;;;;;;-4.05;75.98;100861.45;1756642;80;21188;-70
2021/01/21 05:25:59;;;;;;;34.13;18.32;;;;;;;-4.03;76.03;100862.09;1750470;81;21560;-71
2021/01/21 05:28:39;;;;;;;33.77;18.30;;;;;;;-3.97;76.04;100861.16;1769314;79;23358;-70
2021/01/21 05:31:15;;;;;;;35.17;19.20;;;;;;;-4.02;76.03;100862.42;1747689;80;21181;-70
2021/01/21 05:33:46;;;;;;;33.90;19.00;;;;;;;-3.99;76.07;100872.22;1747500;81;21941;-70
2021/01/21 05:36:16;;;;;;;34.10;19.30;;;;;;;-3.99;76.08;100860.48;1712838;82;21189;-69
2021/01/21 05:38:57;;;;;;;33.15;18.70;;;;;;;-4.01;76.11;100869.30;1711383;81;21124;-69
2021/01/21 05:41:35;;;;;;;34.83;19.40;;;;;;;-3.90;76.14;100877.34;1830150;77;22006;-69
2021/01/21 05:44:07;;;;;;;32.93;17.80;;;;;;;-3.90;76.14;100874.73;1790944;79;21538;-69
2021/01/21 05:46:39;;;;;;;30.35;18.42;;;;;;;-3.86;76.11;100873.44;1771110;79;22061;-70
2021/01/21 05:49:10;;;;;;;39.10;20.05;;;;;;;-3.83;76.11;100870.52;1795387;79;21139;-70
2021/01/21 05:51:38;;;;;;;36.53;18.87;;;;;;;-3.79;76.07;100866.62;1771019;80;21656;-69
2021/01/21 05:54:09;;;;;;;35.58;19.30;;;;;;;-3.73;76.05;100865.19;1752816;79;21190;-69
2021/01/21 05:56:39;;;;;;;37.60;19.37;;;;;;;-3.71;75.99;100867.17;1770775;80;21084;-70
2021/01/21 05:59:15;;;;;;;33.23;18.07;;;;;;;-3.66;75.96;100864.08;1763441;79;21884;-70
2021/01/21 06:01:43;;;;;;;32.58;18.25;;;;;;;-3.62;75.91;100868.84;1790717;79;21103;-70
2021/01/21 06:04:14;;;;;;;36.38;18.25;;;;;;;-3.60;75.85;100870.80;1766880;79;21623;-68
2021/01/21 06:06:45;;;;;;;;;;;;;;;-3.58;75.83;100874.08;1802669;79;21158;-70
2021/01/21 06:09:15;;;;;;;37.20;18.30;;;;;;;-3.55;75.81;100870.34;1768404;79;20224;-69
2021/01/21 06:11:43;;;;;;;33.95;17.95;;;;;;;-3.53;75.77;100876.20;1816900;79;21155;-69
2021/01/21 06:14:11;;;;;;;34.15;18.87;;;;;;;-3.51;75.80;100876.06;1791261;79;21194;-69
2021/01/21 06:16:41;;;;;;;34.10;18.82;;;;;;;-3.48;75.74;100885.70;1798618;79;21138;-69
2021/01/21 06:19:08;;;;;;;33.28;18.73;;;;;;;-3.41;75.70;100889.81;1789789;79;21578;-70
2021/01/21 06:21:59;;;;;;;36.37;19.97;;;;;;;-3.34;75.66;100882.48;1834534;77;22673;-69
2021/01/21 06:24:44;;;;;;;36.48;19.02;;;;;;;-3.33;75.62;100881.99;1805360;78;27034;-69
2021/01/21 06:27:16;;;;;;;34.67;19.05;;;;;;;-3.29;75.56;100874.20;1761415;79;21363;-70
2021/01/21 06:29:47;;;;;;;36.20;18.75;;;;;;;-3.24;75.50;100875.01;1806554;78;21210;-69
2021/01/21 06:32:16;;;;;;;36.75;19.48;;;;;;;-3.20;75.47;100870.60;1789648;79;21123;-69
2021/01/21 06:34:44;;;;;;;33.92;18.92;;;;;;;-3.14;75.37;100867.36;1790432;79;21206;-68
2021/01/21 06:37:15;;;;;;;37.95;19.17;;;;;;;-3.09;75.29;100872.94;1804862;79;21202;-70
2021/01/21 06:40:00;;;;;;;33.63;18.42;;;;;;;-2.94;75.21;100871.80;1810419;79;21971;-70
2021/01/21 06:42:35;;;;;;;37.75;20.65;;;;;;;-2.94;75.21;100871.80;1805271;79;21171;-69
2021/01/21 06:45:05;;;;;;;37.13;19.62;;;;;;;-2.85;75.04;100873.95;1816648;78;21153;-69
2021/01/21 06:47:35;;;;;;;34.23;19.45;;;;;;;-2.75;74.91;100881.65;1793650;78;21158;-69
2021/01/21 06:50:05;;;;;;;38.70;20.60;;;;;;;-2.68;74.77;100869.06;1793268;79;21122;-70
2021/01/21 06:52:37;;;;;;;36.93;20.02;;;;;;;-2.62;74.22;100868.91;1795947;79;21953;-69
2021/01/21 06:55:08;;;;;;;;;;;;;;;-2.62;74.22;100868.91;1767312;79;21629;-70
2021/01/21 06:57:41;;;;;;;37.30;20.08;;;;;;;-2.55;74.39;100872.50;1807794;78;20271;-69
2021/01/21 07:00:14;;;;;;;35.00;20.00;;;;;;;-2.52;74.28;100881.33;1810688;79;21119;-70
2021/01/21 07:02:49;;;;;;;35.00;20.17;;;;;;;-2.47;74.15;100886.06;1797615;79;21186;-70
2021/01/21 07:05:23;;;;;;;36.30;19.85;;;;;;;-2.43;74.06;100886.08;1795528;78;21370;-70
2021/01/21 07:10:45;;;;;;;38.33;20.50;;;;;;;-2.27;73.83;100885.23;1809514;77;22629;-70
2021/01/21 07:13:19;;;;;;;33.85;18.12;;;;;;;-2.29;73.65;100875.45;1803212;77;21161;-71
2021/01/21 07:15:50;;;;;;;37.85;20.72;;;;;;;-2.28;73.62;100870.03;1738390;78;21415;-71
2021/01/21 07:18:22;;;;;;;36.65;20.62;;;;;;;-2.22;73.62;100857.60;1807722;78;21116;-70
2021/01/21 07:21:16;;;;;;;36.73;20.25;;;;;;;-2.22;73.62;100857.60;1810067;78;21322;-71
2021/01/21 07:23:55;;;;;;;31.87;17.87;;;;;;;-2.17;73.37;100859.73;1789670;78;21147;-70
2021/01/21 07:26:34;;;;;;;35.15;19.07;;;;;;;-2.11;73.32;100862.97;1804898;77;21190;-71
2021/01/21 07:29:21;;;;;;;34.13;18.65;;;;;;;-2.04;73.22;100869.20;1794676;77;22227;-71
2021/01/21 07:32:04;;;;;;;31.82;18.20;;;;;;;-1.99;73.07;100868.69;1808765;78;21176;-71
2021/01/21 07:34:45;;;;;;;38.10;21.62;;;;;;;-1.93;73.00;100862.79;1765043;78;21590;-72
2021/01/21 07:37:32;;;;;;;32.35;19.10;;;;;;;-1.91;72.82;100864.27;1801742;78;21116;-70
2021/01/21 07:40:04;;;;;;;35.45;19.82;;;;;;;-1.87;72.81;100859.50;1787330;78;21690;-72
2021/01/21 07:42:38;;;;;;;36.75;21.35;;;;;;;-1.85;72.67;100853.59;1772043;79;21524;-71
2021/01/21 07:45:19;;;;;;;32.38;17.90;;;;;;;-1.83;72.59;100853.44;1818637;78;21642;-71
2021/01/21 07:47:50;;;;;;;35.08;19.80;;;;;;;-1.80;72.41;100859.15;1788121;78;21587;-70
2021/01/21 07:50:29;;;;;;;37.20;20.27;;;;;;;-1.79;72.47;100851.61;1804804;77;21135;-70
2021/01/21 07:53:02;;;;;;;32.98;19.92;;;;;;;-1.79;72.47;100851.61;1800586;77;21127;-70
2021/01/21 07:55:37;;;;;;;35.13;19.05;;;;;;;-1.72;72.42;100847.33;1798739;77;21184;-70
2021/01/21 07:58:20;;;;;;;32.65;18.15;;;;;;;-1.64;72.42;100843.06;1800238;77;21226;-71
2021/01/21 08:00:53;;;;;;;34.90;19.85;;;;;;;-1.54;72.28;100843.18;1793154;78;21531;-70
2021/01/21 08:03:43;;;;;;;36.17;19.55;;;;;;;-1.48;72.14;100830.71;1794075;77;21142;-72
2021/01/21 08:06:17;;;;;;;33.92;19.20;;;;;;;-1.41;71.98;100829.53;1801309;77;21178;-74
2021/01/21 08:08:51;;;;;;;35.68;20.62;;;;;;;-1.40;71.83;100831.66;1796814;77;22311;-73
2021/01/21 08:11:21;;;;;;;37.30;20.80;;;;;;;-1.38;71.79;100826.57;1790981;77;21199;-73
2021/01/21 08:13:57;;;;;;;38.23;22.58;;;;;;;-1.34;71.69;100833.09;1797600;79;21286;-71
2021/01/21 08:16:24;;;;;;;36.38;20.57;;;;;;;-1.27;71.68;100832.72;1798546;79;21163;-70
2021/01/21 08:19:02;;;;;;;34.05;20.27;;;;;;;-1.19;71.58;100823.48;1779879;78;21781;-73
2021/01/21 08:21:30;;;;;;;36.48;20.57;;;;;;;-1.08;71.45;100824.91;1777369;78;21618;-74
2021/01/21 08:24:01;;;;;;;33.00;19.17;;;;;;;-1.02;71.28;100818.98;1783067;79;21462;-71
2021/01/21 08:26:31;;;;;;;31.90;17.45;;;;;;;-0.97;71.09;100822.38;1779611;78;21232;-71
2021/01/21 08:28:59;;;;;;;35.85;20.20;;;;;;;-0.88;71.05;100816.59;1793912;78;21214;-72
2021/01/21 08:31:46;;;;;;;35.63;20.23;;;;;;;-0.80;70.89;100814.70;1793660;79;21603;-74
2021/01/21 08:34:22;;;;;;;35.52;20.80;;;;;;;-0.68;70.77;100822.98;1772172;79;21374;-72
2021/01/21 08:37:03;;;;;;;32.23;19.10;;;;;;;-0.59;70.49;100822.39;1783885;78;21172;-73
2021/01/21 08:39:32;;;;;;;36.58;21.33;;;;;;;-0.57;69.95;100820.42;1781550;79;21056;-72
2021/01/21 08:42:00;;;;;;;37.23;21.23;;;;;;;-0.59;69.90;100819.30;1796376;78;21619;-71
2021/01/21 08:44:27;;;;;;;31.77;19.35;;;;;;;-0.56;70.01;100813.70;1788099;78;21144;-72
2021/01/21 08:47:00;;;;;;;32.63;19.15;;;;;;;-0.49;69.90;100807.25;1798368;79;22083;-71
2021/01/21 08:49:34;;;;;;;36.58;20.00;;;;;;;-0.44;69.84;100809.33;1791763;79;21158;-74
2021/01/21 08:52:09;;;;;;;34.27;19.00;;;;;;;-0.38;69.74;100809.42;1786403;79;21136;-72
2021/01/21 08:54:53;;;;;;;34.08;19.40;;;;;;;-0.32;69.59;100816.59;1794007;79;21143;-71
2021/01/21 08:57:25;;;;;;;33.38;20.23;;;;;;;-0.31;69.16;100816.08;1794010;79;21179;-72
2021/01/21 08:59:53;;;;;;;32.70;19.55;;;;;;;-0.33;69.22;100812.81;1794394;79;21278;-72
2021/01/21 09:02:43;;;;;;;34.50;19.98;;;;;;;-0.27;69.16;100818.66;1778919;79;21079;-73
2021/01/21 09:05:11;;;;;;;30.25;18.50;;;;;;;-0.20;69.12;100816.13;1777091;79;21165;-71
2021/01/21 09:07:39;;;;;;;34.00;19.48;;;;;;;-0.15;68.93;100809.86;1788672;79;21168;-72
2021/01/21 09:10:12;;;;;;;34.05;18.95;;;;;;;-0.11;68.77;100816.37;1784533;79;21167;-72
2021/01/21 09:12:41;;;;;;;28.40;17.75;;;;;;;-0.09;68.74;100810.45;1797073;79;21365;-73
2021/01/21 09:15:12;;;;;;;29.30;18.23;;;;;;;-0.04;68.62;100808.09;1794083;79;21174;-70
2021/01/21 09:17:41;;;;;;;31.70;20.10;;;;;;;-0.02;68.48;100802.17;1796801;78;21163;-72
2021/01/21 09:20:30;;;;;;;34.33;21.12;;;;;;;-0.02;68.37;100806.11;1792590;78;21212;-73
2021/01/21 09:23:19;;;;;;;32.65;20.02;;;;;;;-0.06;68.19;100806.97;1779725;78;21227;-73
2021/01/21 09:25:48;;;;;;;35.40;20.65;;;;;;;-0.12;68.33;100802.94;1776021;78;21389;-73
2021/01/21 09:28:19;;;;;;;26.93;16.57;;;;;;;-0.11;68.40;100808.50;1780554;78;21227;-71
2021/01/21 09:30:47;;;;;;;32.65;18.70;;;;;;;-0.04;68.30;100802.84;1787362;78;21137;-73
2021/01/21 09:33:15;;;;;;;33.40;18.85;;;;;;;-0.03;68.34;100803.17;1785852;78;21214;-72
2021/01/21 09:35:47;;;;;;;29.90;18.62;;;;;;;0.02;68.29;100800.80;1802100;78;21581;-73
2021/01/21 09:38:15;;;;;;;29.25;18.55;;;;;;;0.10;68.13;100795.47;1794901;78;21388;-74
2021/01/21 09:40:42;;;;;;;32.67;19.55;;;;;;;0.13;68.02;100797.73;1788534;79;21176;-73
2021/01/21 09:43:12;;;;;;;31.65;18.67;;;;;;;0.15;68.02;100791.78;1780101;79;21156;-76
2021/01/21 09:45:41;;;;;;;32.98;19.07;;;;;;;0.24;68.00;100795.14;1778338;79;21123;-74
2021/01/21 09:48:10;;;;;;;31.07;18.48;;;;;;;0.32;67.80;100796.83;1779942;79;21615;-75
2021/01/21 09:50:39;;;;;;;30.52;18.23;;;;;;;0.36;67.77;100788.89;1787464;79;21794;-73
2021/01/21 09:53:07;;;;;;;30.48;19.00;;;;;;;0.40;67.48;100783.61;1782749;79;21131;-73
2021/01/21 09:55:35;;;;;;;31.82;18.85;;;;;;;0.36;67.40;100777.91;1787815;79;21218;-75
2021/01/21 09:58:05;;;;;;;31.33;19.37;;;;;;;0.37;67.40;100798.42;1786700;79;21572;-75
2021/01/21 10:00:33;;;;;;;31.75;19.45;;;;;;;0.35;67.37;100784.14;1789880;79;21139;-75
2021/01/21 10:03:01;;;;;;;30.68;19.57;;;;;;;0.36;67.39;100781.85;1790050;79;21434;-73
2021/01/21 10:05:29;;;;;;;32.10;19.35;;;;;;;0.43;67.41;100780.61;1783021;79;21210;-74
2021/01/21 10:07:57;;;;;;;28.57;17.65;;;;;;;0.53;67.37;100778.50;1793160;79;21195;-76
2021/01/21 10:10:25;;;;;;;27.30;16.55;;;;;;;0.70;67.35;100781.20;1784725;79;21182;-75
2021/01/21 10:12:53;;;;;;;28.07;16.25;;;;;;;0.88;67.10;100780.77;1791400;79;21186;-75
2021/01/21 10:15:21;;;;;;;30.37;18.25;;;;;;;1.04;66.72;100773.13;1782717;79;21373;-74
2021/01/21 10:17:50;;;;;;;30.15;18.32;;;;;;;1.14;66.37;100770.98;1780806;79;21120;-75
2021/01/21 10:20:19;;;;;;;29.15;17.25;;;;;;;1.20;66.00;100770.73;1783774;79;21164;-73
2021/01/21 10:22:47;;;;;;;32.53;17.98;;;;;;;1.28;65.95;100760.06;1790008;79;21255;-76
2021/01/21 10:25:15;;;;;;;28.85;17.42;;;;;;;1.38;65.67;100763.68;1796035;79;21135;-73
2021/01/21 10:27:47;;;;;;;28.50;17.10;;;;;;;1.46;65.43;100769.32;1798178;79;21205;-74
2021/01/21 10:30:18;;;;;;;31.52;19.40;;;;;;;1.50;65.17;100768.73;1790635;79;21163;-73
2021/01/21 10:32:46;;;;;;;32.13;19.57;;;;;;;1.51;65.02;100770.36;1798194;79;21630;-73
2021/01/21 10:35:14;;;;;;;31.80;19.15;;;;;;;1.47;64.75;100759.91;1799118;79;21194;-73
2021/01/21 10:37:42;;;;;;;29.63;18.77;;;;;;;1.47;64.86;100763.85;1790110;79;21112;-74
2021/01/21 10:40:12;;;;;;;29.20;17.98;;;;;;;1.54;64.76;100755.49;1785583;79;22377;-73
2021/01/21 10:42:40;;;;;;;29.15;18.32;;;;;;;1.58;64.63;100748.86;1795374;79;21654;-72
2021/01/21 10:45:12;;;;;;;32.48;19.10;;;;;;;1.60;64.50;100751.28;1780540;79;21175;-73
2021/01/21 10:47:39;;;;;;;35.00;20.23;;;;;;;1.60;64.43;100744.20;1781864;79;21179;-74
2021/01/21 10:50:11;;;;;;;33.35;20.37;;;;;;;1.61;64.52;100731.36;1781649;79;21183;-73
2021/01/21 10:52:39;;;;;;;33.70;19.80;;;;;;;1.70;64.52;100732.00;1785034;79;21422;-72
2021/01/21 10:55:09;;;;;;;30.52;18.70;;;;;;;1.77;64.48;100727.58;1776163;78;21220;-75
2021/01/21 10:57:37;;;;;;;30.15;18.40;;;;;;;1.80;64.38;100724.55;1781711;78;21140;-71
2021/01/21 11:00:09;;;;;;;31.93;18.65;;;;;;;1.84;64.25;100717.08;1782856;78;21167;-74
2021/01/21 11:02:37;;;;;;;;;;;;;;;1.87;64.18;100722.77;1788712;78;21218;-73
2021/01/21 11:05:07;;;;;;;31.87;19.15;;;;;;;1.86;64.05;100715.88;1789373;79;22261;-71
2021/01/21 11:07:35;;;;;;;28.92;16.23;;;;;;;1.87;64.06;100715.37;1782563;78;21588;-72
2021/01/21 11:10:05;;;;;;;32.78;19.05;;;;;;;1.92;63.98;100718.24;1785153;78;21206;-76
2021/01/21 11:12:35;;;;;;;30.05;17.77;;;;;;;1.92;63.89;100720.88;1795259;78;21658;-75
2021/01/21 11:15:05;;;;;;;31.23;19.35;;;;;;;1.92;63.59;100717.44;1796853;78;21147;-75
2021/01/21 11:17:33;;;;;;;31.73;19.55;;;;;;;1.84;63.67;100714.44;1800247;77;21941;-75
2021/01/21 11:20:01;;;;;;;29.80;18.25;;;;;;;1.83;63.86;100720.22;1801434;78;21199;-75
2021/01/21 11:22:30;;;;;;;26.25;15.72;;;;;;;1.83;63.72;100719.41;1776118;78;22224;-74
2021/01/21 11:24:58;;;;;;;26.20;16.73;;;;;;;1.79;63.65;100718.19;1782967;78;21232;-75
2021/01/21 11:27:28;;;;;;;34.88;19.60;;;;;;;1.77;63.77;100717.55;1777393;78;21442;-74
2021/01/21 11:29:55;;;;;;;29.50;18.75;;;;;;;1.70;63.83;100712.25;1784018;78;22219;-74
2021/01/21 11:32:24;;;;;;;31.75;18.62;;;;;;;1.74;63.98;100713.48;1783223;78;21223;-73
2021/01/21 11:34:52;;;;;;;34.20;20.68;;;;;;;1.77;63.88;100709.14;1789402;79;21167;-71
2021/01/21 11:37:20;;;;;;;31.45;18.90;;;;;;;1.78;63.91;100706.03;1780096;78;21199;-72
2021/01/21 11:39:48;;;;;;;31.12;18.67;;;;;;;1.83;63.98;100695.70;1790525;79;21127;-70